MOL Experience — 3ELI7 — position and weather

sailwx.info

Track history (hours):
 
Tides and Currents Weather Stations Pressure Air Temp Water Temp Dewpoint Dewpoint Depression Visibility Wind Speed Wind Dir Waves Ship Positions

MOL Experience

Last reported at 2018-Jan-12 14:56 UTC. Time now 2018-Jan-20 17:18 UTC.
Position N 34°04' W 120°49'.
Warning: this ship's position is 8 days out of date.

Length 293 m; draft 9.2 m.

Type: Cargo ship. MMSI: 372955000.

Date/timePositionNaut miles runAvg speedWind from/ knotsBaromVisibWave heightAir tempDewpointWater temp
2018-Jan-12 14:56N 34°04' W 120°49'4 8.6
2018-Jan-12 14:29N 34°01' W 120°47'1 1.7
2018-Jan-12 13:57N 34°02' W 120°47'1 1.7
2018-Jan-12 13:30N 34°02' W 120°48'1 1.7
2018-Jan-12 12:59N 34°03' W 120°48'1 1.6
2018-Jan-12 12:27N 34°04' W 120°49'1 1.7
2018-Jan-12 11:55N 34°05' W 120°49'1 1.6
2018-Jan-12 11:28N 34°05' W 120°50'1 1.5
2018-Jan-12 11:00N 34°06' W 120°50'1 1.4
2018-Jan-12 10:31N 34°06' W 120°51'1 1.3
2018-Jan-12 10:00N 34°07' W 120°51'1 1.3
2018-Jan-12 09:30N 34°07' W 120°52'1 1.2
2018-Jan-12 08:58N 34°08' W 120°52'1 1.1
2018-Jan-12 08:30N 34°08' W 120°52'1 1.2
2018-Jan-12 07:59N 34°09' W 120°53'1 1.1
2018-Jan-12 07:29N 34°09' W 120°53'1 1.1
2018-Jan-12 06:59N 34°10' W 120°53'1 1.4
2018-Jan-12 06:30N 34°11' W 120°53'4 7.5
2018-Jan-12 05:58N 34°14' W 120°55'612.4
2018-Jan-12 05:30N 34°19' W 120°59'612.9
2018-Jan-12 05:00N 34°25' W 121°02'712.9
2018-Jan-12 04:30N 34°31' W 121°06'612.9
2018-Jan-12 04:00N 34°37' W 121°09'713.3
2018-Jan-12 03:30N 34°42' W 121°13'713.3
2018-Jan-12 03:00N 34°48' W 121°17'612.8
2018-Jan-12 02:31N 34°53' W 121°21'713.0
2018-Jan-12 02:00N 34°58' W 121°27'713.2
2018-Jan-12 01:30N 35°03' W 121°32'713.1
2018-Jan-12 01:00N 35°08' W 121°37'713.1
2018-Jan-12 00:30N 35°14' W 121°42'713.2
2018-Jan-12 00:00N 35°19' W 121°46'613.0
2018-Jan-11 23:31N 35°24' W 121°51'612.9
2018-Jan-11 23:00N 35°30' W 121°56'713.2
2018-Jan-11 22:30N 35°35' W 122°00'713.2
2018-Jan-11 22:00N 35°40' W 122°05'713.1
2018-Jan-11 21:30N 35°45' W 122°10'613.1
2018-Jan-11 21:00N 35°50' W 122°15'612.9
2018-Jan-11 20:30N 35°55' W 122°20'613.0
2018-Jan-11 20:00N 36°00' W 122°25'713.1
2018-Jan-11 19:30N 36°06' W 122°31'613.0
2018-Jan-11 19:00N 36°11' W 122°35'612.6
2018-Jan-11 18:30N 36°16' W 122°40'612.8
2018-Jan-11 18:00N 36°22' W 122°40'612.5
2018-Jan-11 17:30N 36°28' W 122°41'612.5
2018-Jan-11 17:00N 36°35' W 122°41'612.6
2018-Jan-11 16:30N 36°41' W 122°41'612.4
2018-Jan-11 16:00N 36°47' W 122°42'612.2
2018-Jan-11 15:30N 36°53' W 122°43'612.3
2018-Jan-11 14:59N 36°60' W 122°43'612.5
2018-Jan-11 14:28N 37°06' W 122°44'612.7
2018-Jan-11 14:00N 37°12' W 122°44'612.7
2018-Jan-11 13:30N 37°18' W 122°44'613.0
2018-Jan-11 13:00N 37°25' W 122°44'613.0
2018-Jan-11 12:30N 37°31' W 122°44'613.0
2018-Jan-11 12:00N 37°38' W 122°44'612.9
2018-Jan-11 11:30N 37°44' W 122°41'5 9.2
2018-Jan-11 11:00N 37°46' W 122°36'612.6
2018-Jan-11 10:30N 37°49' W 122°29'612.2
2018-Jan-11 10:00N 37°48' W 122°21'3 6.4
2018-Jan-11 09:30N 37°48' W 122°17'1 2.1
2018-Jan-11 09:00N 37°48' W 122°19'0 0.0
2018-Jan-11 08:28N 37°48' W 122°19'0 0.0
2018-Jan-11 07:58N 37°48' W 122°19'0 0.0
2018-Jan-11 07:28N 37°48' W 122°19'0 0.0
2018-Jan-11 06:58N 37°48' W 122°19'0 0.0
2018-Jan-11 06:28N 37°48' W 122°19'0 0.0
2018-Jan-11 05:58N 37°48' W 122°19'0 0.0
2018-Jan-11 05:28N 37°48' W 122°19'0 0.0
2018-Jan-11 04:58N 37°48' W 122°19'0 0.0
2018-Jan-11 04:28N 37°48' W 122°19'0 0.0
2018-Jan-11 03:58N 37°48' W 122°19'0 0.0
2018-Jan-11 03:28N 37°48' W 122°19'0 0.0
2018-Jan-11 02:58N 37°48' W 122°19'0 0.0
2018-Jan-11 02:28N 37°48' W 122°19'0 0.0
2018-Jan-11 01:58N 37°48' W 122°19'0 0.1
2018-Jan-11 01:30N 37°48' W 122°19'1 2.6
2018-Jan-11 01:01N 37°48' W 122°20'3 6.4
2018-Jan-11 00:30N 37°49' W 122°24'2 3.5
2018-Jan-11 00:00N 37°49' W 122°27'4 7.3
2018-Jan-10 23:31N 37°48' W 122°31'510.1
2018-Jan-10 23:01N 37°46' W 122°37'5 9.0
2018-Jan-10 22:31N 37°46' W 122°43'4 7.1
2018-Jan-10 22:01N 37°46' W 122°47'3 6.5
2018-Jan-10 21:30N 37°48' W 122°51'4 7.8
2018-Jan-10 21:01N 37°50' W 122°55'611.9
2018-Jan-10 20:30N 37°53' W 123°01'612.3
2018-Jan-10 20:00N 37°56' W 123°08'611.9
2018-Jan-10 19:31N 38°00' W 123°14'612.1
2018-Jan-10 19:00N 38°05' W 123°19'713.2
2018-Jan-10 18:30N 38°10' W 123°24'713.7
2018-Jan-10 18:00N 38°16' W 123°29'713.8
2018-Jan-10 17:31N 38°21' W 123°33'713.9
2018-Jan-10 17:01N 38°27' W 123°38'714.4
2018-Jan-10 16:30N 38°33' W 123°43'714.0
2018-Jan-10 16:00N 38°39' W 123°48'39913.5
2018-Jan-09 10:32N 45°13' W 125°14'015.7
2018-Jan-09 10:30N 45°14' W 125°14'815.1
2018-Jan-09 10:00N 45°21' W 125°16'815.0
2018-Jan-09 09:30N 45°29' W 125°17'714.7
2018-Jan-09 09:00N 45°36' W 125°18'714.1
2018-Jan-09 08:31N 45°43' W 125°19'713.7
2018-Jan-09 08:00N 45°50' W 125°20'713.8
2018-Jan-09 07:30N 45°57' W 125°20'713.9
2018-Jan-09 07:00N 46°04' W 125°21'714.0
2018-Jan-09 06:30N 46°11' W 125°21'713.7
2018-Jan-09 06:00N 46°17' W 125°21'713.6
2018-Jan-09 05:30N 46°24' W 125°22'713.4
2018-Jan-09 05:00N 46°31' W 125°22'713.5
2018-Jan-09 04:30N 46°38' W 125°22'713.5
2018-Jan-09 04:01N 46°44' W 125°23'713.7
2018-Jan-09 03:30N 46°51' W 125°23'713.7
2018-Jan-09 03:00N 46°58' W 125°23'813.3
2018-Jan-09 02:25N 47°06' W 125°23'613.6
2018-Jan-09 02:00N 47°12' W 125°23'5314.5
2018-Jan-08 22:19N 48°05' W 125°22'514.0
2018-Jan-08 21:57N 48°09' W 125°18'714.2
2018-Jan-08 21:28N 48°16' W 125°13'714.3
2018-Jan-08 20:59N 48°22' W 125°09'714.1
2018-Jan-08 20:30N 48°28' W 125°04'713.9
2018-Jan-08 20:00N 48°31' W 124°55'715.1
2018-Jan-08 19:30N 48°31' W 124°44'714.1
2018-Jan-08 19:00N 48°28' W 124°34'713.9
2018-Jan-08 18:30N 48°25' W 124°24'714.9
2018-Jan-08 18:00N 48°23' W 124°14'714.7
2018-Jan-08 17:30N 48°20' W 124°04'714.5
2018-Jan-08 17:00N 48°18' W 123°53'714.4
2018-Jan-08 16:30N 48°17' W 123°43'713.0
2018-Jan-08 15:58N 48°16' W 123°32'511.7
2018-Jan-08 15:30N 48°20' W 123°27'5 8.9
2018-Jan-08 15:00N 48°23' W 123°21'612.0
2018-Jan-08 14:30N 48°25' W 123°13'918.2
2018-Jan-08 14:00N 48°34' W 123°13'917.2
2018-Jan-08 13:30N 48°42' W 123°13'1019.5
2018-Jan-08 13:00N 48°48' W 123°01'919.1
2018-Jan-08 12:31N 48°55' W 123°10'918.5
2018-Jan-08 12:01N 49°01' W 123°20'510.2
2018-Jan-08 11:30N 49°06' W 123°18'611.4
2018-Jan-08 11:00N 49°07' W 123°09'612.1
2018-Jan-08 10:30N 49°09' W 123°01'4 8.6
2018-Jan-08 10:00N 49°11' W 122°55'0 0.3
2018-Jan-08 09:28N 49°11' W 122°55'0 0.0
2018-Jan-08 08:58N 49°11' W 122°55'0 0.0
2018-Jan-08 08:28N 49°11' W 122°55'0 0.1
2018-Jan-08 07:58N 49°11' W 122°55'0 0.1
2018-Jan-08 07:28N 49°11' W 122°55'0 0.0
2018-Jan-08 06:58N 49°11' W 122°55'0 0.1
2018-Jan-08 06:28N 49°11' W 122°55'0 0.0
2018-Jan-08 05:58N 49°11' W 122°55'0 0.1
2018-Jan-08 05:25N 49°11' W 122°55'0 0.0
2018-Jan-08 04:58N 49°11' W 122°55'0 0.0
2018-Jan-08 04:28N 49°11' W 122°55'0 0.0
2018-Jan-08 03:58N 49°11' W 122°55'0 0.1
2018-Jan-08 03:28N 49°11' W 122°55'0 0.1
2018-Jan-08 02:58N 49°11' W 122°55'0 0.0
2018-Jan-08 02:25N 49°11' W 122°55'0 0.0
2018-Jan-08 01:58N 49°11' W 122°55'0 0.0
2018-Jan-08 01:28N 49°11' W 122°55'0 0.0
2018-Jan-08 00:58N 49°11' W 122°55'0 0.0
2018-Jan-08 00:28N 49°11' W 122°55'0 0.0
2018-Jan-07 23:58N 49°11' W 122°55'0 0.0
2018-Jan-07 23:28N 49°11' W 122°55'0 0.0
2018-Jan-07 22:58N 49°11' W 122°55'0 0.0
2018-Jan-07 22:30N 49°11' W 122°55'2 4.3
2018-Jan-07 22:00N 49°09' W 122°57'5 9.4
2018-Jan-07 21:30N 49°08' W 123°04'510.7
2018-Jan-07 21:00N 49°07' W 123°12'510.9
2018-Jan-07 20:30N 49°06' W 123°20'5 9.7
2018-Jan-07 20:00N 49°01' W 123°16'4 8.1
2018-Jan-07 19:30N 48°59' W 123°12'816.7
2018-Jan-07 19:00N 48°52' W 123°03'816.7
2018-Jan-07 18:30N 48°44' W 123°06'917.5
2018-Jan-07 18:00N 48°37' W 123°14'1121.8
2018-Jan-07 17:31N 48°27' W 123°10'714.9
2018-Jan-07 17:00N 48°22' W 123°19'2 4.0
2018-Jan-07 16:31N 48°21' W 123°22'0 0.2
2018-Jan-07 15:58N 48°21' W 123°22'0 0.1
2018-Jan-07 15:28N 48°21' W 123°22'0 0.0
2018-Jan-07 14:58N 48°21' W 123°22'0 0.0
2018-Jan-07 14:28N 48°21' W 123°22'0 0.0
2018-Jan-07 13:58N 48°21' W 123°22'0 0.1
2018-Jan-07 13:28N 48°21' W 123°22'0 0.1
2018-Jan-07 12:58N 48°21' W 123°21'0 0.0
2018-Jan-07 12:16N 48°21' W 123°21'0 0.1
2018-Jan-07 11:58N 48°21' W 123°21'0 0.1
2018-Jan-07 11:22N 48°21' W 123°22'0 0.4
2018-Jan-07 10:58N 48°21' W 123°22'0 0.2
2018-Jan-07 10:28N 48°21' W 123°22'0 0.0
2018-Jan-07 09:58N 48°21' W 123°22'0 0.0
2018-Jan-07 09:28N 48°21' W 123°22'0 0.0
2018-Jan-07 08:58N 48°21' W 123°22'0 0.0
2018-Jan-07 08:28N 48°21' W 123°22'0 0.0
2018-Jan-07 07:58N 48°21' W 123°22'0 0.1
2018-Jan-07 07:28N 48°21' W 123°22'0 0.2
2018-Jan-07 07:01N 48°21' W 123°22'3 7.0
2018-Jan-07 06:31N 48°18' W 123°25'712.7
2018-Jan-07 05:59N 48°11' W 123°25'4 9.3
2018-Jan-07 05:30N 48°09' W 123°19'1019.2
2018-Jan-07 04:58N 48°13' W 123°04'1121.6
2018-Jan-07 04:28N 48°11' W 122°49'919.6
2018-Jan-07 04:00N 48°05' W 122°39'1019.6
2018-Jan-07 03:31N 47°57' W 122°31'1020.1
2018-Jan-07 03:00N 47°47' W 122°26'1020.5
2018-Jan-07 02:31N 47°37' W 122°27'1019.7
2018-Jan-07 02:00N 47°27' W 122°24'714.8
2018-Jan-07 01:30N 47°20' W 122°26'4 1.5
2018-Jan-06 22:52N 47°16' W 122°25'0 0.0
2018-Jan-06 22:28N 47°16' W 122°25'0 0.1
2018-Jan-06 21:52N 47°16' W 122°25'0 0.0
2018-Jan-06 21:28N 47°16' W 122°25'0 0.1
2018-Jan-06 20:55N 47°16' W 122°25'0 0.0
2018-Jan-06 20:25N 47°16' W 122°25'0 0.1
2018-Jan-06 19:55N 47°16' W 122°25'0 0.0
2018-Jan-06 18:58N 47°16' W 122°25'0 0.1
2018-Jan-06 18:28N 47°16' W 122°25'0 0.0
2018-Jan-06 17:58N 47°16' W 122°25'0 0.1
2018-Jan-06 17:16N 47°16' W 122°25'0 0.0
2018-Jan-06 16:55N 47°16' W 122°25'0 0.0
2018-Jan-06 16:28N 47°16' W 122°25'0 0.0
2018-Jan-06 15:58N 47°16' W 122°25'0 0.1
2018-Jan-06 15:28N 47°16' W 122°25'0 0.1
2018-Jan-06 14:58N 47°16' W 122°25'0 0.0
2018-Jan-06 14:28N 47°16' W 122°25'0 0.3
2018-Jan-06 14:00N 47°16' W 122°25'1 1.4
2018-Jan-06 13:30N 47°17' W 122°26'3 5.1
2018-Jan-06 13:00N 47°19' W 122°28'612.0
2018-Jan-06 12:30N 47°23' W 122°22'816.0
2018-Jan-06 12:01N 47°31' W 122°26'918.3
2018-Jan-06 11:31N 47°40' W 122°28'1019.1
2018-Jan-06 11:01N 47°49' W 122°28'1019.5
2018-Jan-06 10:30N 47°58' W 122°35'1519.8
2018-Jan-06 09:45N 48°11' W 122°47'520.1
2018-Jan-06 09:30N 48°11' W 122°54'1020.0
2018-Jan-06 09:00N 48°12' W 123°09'815.2
2018-Jan-06 08:31N 48°11' W 123°20'5 9.1
2018-Jan-06 08:00N 48°11' W 123°27'4 7.7
2018-Jan-06 07:30N 48°13' W 123°32'5 9.8
2018-Jan-06 07:00N 48°13' W 123°39'5 9.8
2018-Jan-06 06:29N 48°13' W 123°47'510.0
2018-Jan-06 06:00N 48°13' W 123°54'5 9.3
2018-Jan-06 05:31N 48°15' W 124°00'712.8
2018-Jan-06 05:00N 48°18' W 124°09'612.4
2018-Jan-06 04:30N 48°20' W 124°17'612.4
2018-Jan-06 04:00N 48°23' W 124°26'713.4
2018-Jan-06 03:30N 48°26' W 124°35'816.1
2018-Jan-06 03:00N 48°29' W 124°47'816.0
2018-Jan-06 02:30N 48°28' W 124°59'815.7
2018-Jan-06 01:59N 48°22' W 125°05'715.1
2018-Jan-06 01:30N 48°15' W 125°10'58313.9
2018-Jan-04 07:31N 38°35' W 123°44'913.7
2018-Jan-04 06:52N 38°28' W 123°37'513.6
2018-Jan-04 06:30N 38°24' W 123°33'713.4
2018-Jan-04 06:00N 38°18' W 123°28'713.1
2018-Jan-04 05:30N 38°13' W 123°24'713.4
2018-Jan-04 05:00N 38°08' W 123°19'713.6
2018-Jan-04 04:30N 38°03' W 123°13'713.4
2018-Jan-04 04:00N 37°58' W 123°07'713.5
2018-Jan-04 03:30N 37°54' W 122°59'713.7
2018-Jan-04 03:00N 37°51' W 122°52'713.7
2018-Jan-04 02:30N 37°48' W 122°45'611.6
2018-Jan-04 02:00N 37°46' W 122°37'816.7
2018-Jan-04 01:30N 37°50' W 122°28'612.3
2018-Jan-04 01:00N 37°48' W 122°20'2 4.9
2018-Jan-04 00:31N 37°48' W 122°17'1 3.0
2018-Jan-04 00:00N 37°48' W 122°19'0 0.0
2018-Jan-03 23:29N 37°48' W 122°19'0 0.0
2018-Jan-03 22:56N 37°48' W 122°19'0 0.0
2018-Jan-03 22:29N 37°48' W 122°19'0 0.0
2018-Jan-03 21:59N 37°48' W 122°19'0 0.0
2018-Jan-03 21:29N 37°48' W 122°19'0 0.0
2018-Jan-03 20:59N 37°48' W 122°19'0 0.0
2018-Jan-03 20:29N 37°48' W 122°19'0 0.0
2018-Jan-03 19:59N 37°48' W 122°19'0 0.0
2018-Jan-03 19:29N 37°48' W 122°19'0 0.0
2018-Jan-03 18:59N 37°48' W 122°19'0 0.0
2018-Jan-03 18:29N 37°48' W 122°19'0 0.0
2018-Jan-03 17:59N 37°48' W 122°19'0 0.0
2018-Jan-03 17:29N 37°48' W 122°19'0 0.0
2018-Jan-03 16:59N 37°48' W 122°19'0 0.0
2018-Jan-03 16:29N 37°48' W 122°19'0 0.0
2018-Jan-03 15:59N 37°48' W 122°19'0 0.0
2018-Jan-03 15:29N 37°48' W 122°19'0 0.0
2018-Jan-03 14:59N 37°48' W 122°19'0 0.0
2018-Jan-03 14:29N 37°48' W 122°19'0 0.0
2018-Jan-03 13:59N 37°48' W 122°19'0 0.0
2018-Jan-03 13:29N 37°48' W 122°19'0 0.0
2018-Jan-03 12:59N 37°48' W 122°19'0 0.0
2018-Jan-03 12:29N 37°48' W 122°19'0 0.0
2018-Jan-03 11:59N 37°48' W 122°19'0 0.4
2018-Jan-03 11:30N 37°48' W 122°19'2 4.1
2018-Jan-03 11:01N 37°48' W 122°22'510.3
2018-Jan-03 10:30N 37°49' W 122°28'612.8
2018-Jan-03 10:00N 37°46' W 122°36'510.0
2018-Jan-03 09:30N 37°44' W 122°41'2 3.6
2018-Jan-03 09:01N 37°42' W 122°41'2 4.3
2018-Jan-03 08:30N 37°40' W 122°40'5 9.5
2018-Jan-03 08:00N 37°35' W 122°40'611.9
2018-Jan-03 07:30N 37°29' W 122°40'612.1
2018-Jan-03 07:00N 37°23' W 122°40'612.2
2018-Jan-03 06:31N 37°17' W 122°40'612.4
2018-Jan-03 06:00N 37°11' W 122°40'611.9
2018-Jan-03 05:30N 37°05' W 122°40'612.0
2018-Jan-03 05:00N 36°59' W 122°40'612.0
2018-Jan-03 04:30N 36°53' W 122°40'611.9
2018-Jan-03 04:00N 36°47' W 122°39'612.1
2018-Jan-03 03:31N 36°41' W 122°39'713.4
2018-Jan-03 03:00N 36°34' W 122°38'713.7
2018-Jan-03 02:30N 36°27' W 122°38'2 4.0
2018-Jan-03 02:00N 36°25' W 122°37'0 0.1
2018-Jan-03 01:30N 36°25' W 122°37'0 0.0
2018-Jan-03 01:00N 36°25' W 122°37'0 0.2
2018-Jan-03 00:30N 36°26' W 122°37'0 0.2
2018-Jan-03 00:00N 36°26' W 122°37'0 0.3
2018-Jan-02 23:30N 36°26' W 122°37'0 0.2
2018-Jan-02 23:00N 36°26' W 122°38'0 0.3
2018-Jan-02 22:30N 36°26' W 122°38'0 0.1
2018-Jan-02 22:00N 36°26' W 122°38'0 0.1
2018-Jan-02 21:30N 36°26' W 122°38'0 0.0
2018-Jan-02 21:00N 36°26' W 122°38'0 0.2
2018-Jan-02 20:30N 36°26' W 122°38'0 0.2
2018-Jan-02 20:00N 36°26' W 122°38'0 0.3
2018-Jan-02 19:30N 36°26' W 122°38'0 0.3
2018-Jan-02 19:00N 36°25' W 122°38'0 0.4
2018-Jan-02 18:30N 36°25' W 122°38'0 0.4
2018-Jan-02 18:00N 36°25' W 122°38'0 0.5
2018-Jan-02 17:30N 36°25' W 122°38'0 0.5
2018-Jan-02 17:00N 36°25' W 122°38'0 0.5
2018-Jan-02 16:30N 36°24' W 122°38'0 0.4
2018-Jan-02 16:00N 36°24' W 122°38'0 0.4
2018-Jan-02 15:30N 36°24' W 122°38'0 0.3
2018-Jan-02 15:00N 36°24' W 122°38'  
Track history (hours):
 
Tides and Currents Weather Stations Pressure Air Temp Water Temp Dewpoint Dewpoint Depression Visibility Wind Speed Wind Dir Waves Ship Positions

MOL Experience

Last reported at 2018-Jan-12 14:56 UTC. Time now 2018-Jan-20 17:18 UTC.
Position N 34°04' W 120°49'.
Warning: this ship's position is 8 days out of date.

Length 293 m; draft 9.2 m.

Type: Cargo ship. MMSI: 372955000.

Date/timePositionNaut miles runAvg speedWind from/ knotsBaromVisibWave heightAir tempDewpointWater temp
2018-Jan-12 14:56N 34°04' W 120°49'4 8.6
2018-Jan-12 14:29N 34°01' W 120°47'1 1.7
2018-Jan-12 13:57N 34°02' W 120°47'1 1.7
2018-Jan-12 13:30N 34°02' W 120°48'1 1.7
2018-Jan-12 12:59N 34°03' W 120°48'1 1.6
2018-Jan-12 12:27N 34°04' W 120°49'1 1.7
2018-Jan-12 11:55N 34°05' W 120°49'1 1.6
2018-Jan-12 11:28N 34°05' W 120°50'1 1.5
2018-Jan-12 11:00N 34°06' W 120°50'1 1.4
2018-Jan-12 10:31N 34°06' W 120°51'1 1.3
2018-Jan-12 10:00N 34°07' W 120°51'1 1.3
2018-Jan-12 09:30N 34°07' W 120°52'1 1.2
2018-Jan-12 08:58N 34°08' W 120°52'1 1.1
2018-Jan-12 08:30N 34°08' W 120°52'1 1.2
2018-Jan-12 07:59N 34°09' W 120°53'1 1.1
2018-Jan-12 07:29N 34°09' W 120°53'1 1.1
2018-Jan-12 06:59N 34°10' W 120°53'1 1.4
2018-Jan-12 06:30N 34°11' W 120°53'4 7.5
2018-Jan-12 05:58N 34°14' W 120°55'612.4
2018-Jan-12 05:30N 34°19' W 120°59'612.9
2018-Jan-12 05:00N 34°25' W 121°02'712.9
2018-Jan-12 04:30N 34°31' W 121°06'612.9
2018-Jan-12 04:00N 34°37' W 121°09'713.3
2018-Jan-12 03:30N 34°42' W 121°13'713.3
2018-Jan-12 03:00N 34°48' W 121°17'612.8
2018-Jan-12 02:31N 34°53' W 121°21'713.0
2018-Jan-12 02:00N 34°58' W 121°27'713.2
2018-Jan-12 01:30N 35°03' W 121°32'713.1
2018-Jan-12 01:00N 35°08' W 121°37'713.1
2018-Jan-12 00:30N 35°14' W 121°42'713.2
2018-Jan-12 00:00N 35°19' W 121°46'613.0
2018-Jan-11 23:31N 35°24' W 121°51'612.9
2018-Jan-11 23:00N 35°30' W 121°56'713.2
2018-Jan-11 22:30N 35°35' W 122°00'713.2
2018-Jan-11 22:00N 35°40' W 122°05'713.1
2018-Jan-11 21:30N 35°45' W 122°10'613.1
2018-Jan-11 21:00N 35°50' W 122°15'612.9
2018-Jan-11 20:30N 35°55' W 122°20'613.0
2018-Jan-11 20:00N 36°00' W 122°25'713.1
2018-Jan-11 19:30N 36°06' W 122°31'613.0
2018-Jan-11 19:00N 36°11' W 122°35'612.6
2018-Jan-11 18:30N 36°16' W 122°40'612.8
2018-Jan-11 18:00N 36°22' W 122°40'612.5
2018-Jan-11 17:30N 36°28' W 122°41'612.5
2018-Jan-11 17:00N 36°35' W 122°41'612.6
2018-Jan-11 16:30N 36°41' W 122°41'612.4
2018-Jan-11 16:00N 36°47' W 122°42'612.2
2018-Jan-11 15:30N 36°53' W 122°43'612.3
2018-Jan-11 14:59N 36°60' W 122°43'612.5
2018-Jan-11 14:28N 37°06' W 122°44'612.7
2018-Jan-11 14:00N 37°12' W 122°44'612.7
2018-Jan-11 13:30N 37°18' W 122°44'613.0
2018-Jan-11 13:00N 37°25' W 122°44'613.0
2018-Jan-11 12:30N 37°31' W 122°44'613.0
2018-Jan-11 12:00N 37°38' W 122°44'612.9
2018-Jan-11 11:30N 37°44' W 122°41'5 9.2
2018-Jan-11 11:00N 37°46' W 122°36'612.6
2018-Jan-11 10:30N 37°49' W 122°29'612.2
2018-Jan-11 10:00N 37°48' W 122°21'3 6.4
2018-Jan-11 09:30N 37°48' W 122°17'1 2.1
2018-Jan-11 09:00N 37°48' W 122°19'0 0.0
2018-Jan-11 08:28N 37°48' W 122°19'0 0.0
2018-Jan-11 07:58N 37°48' W 122°19'0 0.0
2018-Jan-11 07:28N 37°48' W 122°19'0 0.0
2018-Jan-11 06:58N 37°48' W 122°19'0 0.0
2018-Jan-11 06:28N 37°48' W 122°19'0 0.0
2018-Jan-11 05:58N 37°48' W 122°19'0 0.0
2018-Jan-11 05:28N 37°48' W 122°19'0 0.0
2018-Jan-11 04:58N 37°48' W 122°19'0 0.0
2018-Jan-11 04:28N 37°48' W 122°19'0 0.0
2018-Jan-11 03:58N 37°48' W 122°19'0 0.0
2018-Jan-11 03:28N 37°48' W 122°19'0 0.0
2018-Jan-11 02:58N 37°48' W 122°19'0 0.0
2018-Jan-11 02:28N 37°48' W 122°19'0 0.0
2018-Jan-11 01:58N 37°48' W 122°19'0 0.1
2018-Jan-11 01:30N 37°48' W 122°19'1 2.6
2018-Jan-11 01:01N 37°48' W 122°20'3 6.4
2018-Jan-11 00:30N 37°49' W 122°24'2 3.5
2018-Jan-11 00:00N 37°49' W 122°27'4 7.3
2018-Jan-10 23:31N 37°48' W 122°31'510.1
2018-Jan-10 23:01N 37°46' W 122°37'5 9.0
2018-Jan-10 22:31N 37°46' W 122°43'4 7.1
2018-Jan-10 22:01N 37°46' W 122°47'3 6.5
2018-Jan-10 21:30N 37°48' W 122°51'4 7.8
2018-Jan-10 21:01N 37°50' W 122°55'611.9
2018-Jan-10 20:30N 37°53' W 123°01'612.3
2018-Jan-10 20:00N 37°56' W 123°08'611.9
2018-Jan-10 19:31N 38°00' W 123°14'612.1
2018-Jan-10 19:00N 38°05' W 123°19'713.2
2018-Jan-10 18:30N 38°10' W 123°24'713.7
2018-Jan-10 18:00N 38°16' W 123°29'713.8
2018-Jan-10 17:31N 38°21' W 123°33'713.9
2018-Jan-10 17:01N 38°27' W 123°38'714.4
2018-Jan-10 16:30N 38°33' W 123°43'714.0
2018-Jan-10 16:00N 38°39' W 123°48'39913.5
2018-Jan-09 10:32N 45°13' W 125°14'015.7
2018-Jan-09 10:30N 45°14' W 125°14'815.1
2018-Jan-09 10:00N 45°21' W 125°16'815.0
2018-Jan-09 09:30N 45°29' W 125°17'714.7
2018-Jan-09 09:00N 45°36' W 125°18'714.1
2018-Jan-09 08:31N 45°43' W 125°19'713.7
2018-Jan-09 08:00N 45°50' W 125°20'713.8
2018-Jan-09 07:30N 45°57' W 125°20'713.9
2018-Jan-09 07:00N 46°04' W 125°21'714.0
2018-Jan-09 06:30N 46°11' W 125°21'713.7
2018-Jan-09 06:00N 46°17' W 125°21'713.6
2018-Jan-09 05:30N 46°24' W 125°22'713.4
2018-Jan-09 05:00N 46°31' W 125°22'713.5
2018-Jan-09 04:30N 46°38' W 125°22'713.5
2018-Jan-09 04:01N 46°44' W 125°23'713.7
2018-Jan-09 03:30N 46°51' W 125°23'713.7
2018-Jan-09 03:00N 46°58' W 125°23'813.3
2018-Jan-09 02:25N 47°06' W 125°23'613.6
2018-Jan-09 02:00N 47°12' W 125°23'5314.5
2018-Jan-08 22:19N 48°05' W 125°22'514.0
2018-Jan-08 21:57N 48°09' W 125°18'714.2
2018-Jan-08 21:28N 48°16' W 125°13'714.3
2018-Jan-08 20:59N 48°22' W 125°09'714.1
2018-Jan-08 20:30N 48°28' W 125°04'713.9
2018-Jan-08 20:00N 48°31' W 124°55'715.1
2018-Jan-08 19:30N 48°31' W 124°44'714.1
2018-Jan-08 19:00N 48°28' W 124°34'713.9
2018-Jan-08 18:30N 48°25' W 124°24'714.9
2018-Jan-08 18:00N 48°23' W 124°14'714.7
2018-Jan-08 17:30N 48°20' W 124°04'714.5
2018-Jan-08 17:00N 48°18' W 123°53'714.4
2018-Jan-08 16:30N 48°17' W 123°43'713.0
2018-Jan-08 15:58N 48°16' W 123°32'511.7
2018-Jan-08 15:30N 48°20' W 123°27'5 8.9
2018-Jan-08 15:00N 48°23' W 123°21'612.0
2018-Jan-08 14:30N 48°25' W 123°13'918.2
2018-Jan-08 14:00N 48°34' W 123°13'917.2
2018-Jan-08 13:30N 48°42' W 123°13'1019.5
2018-Jan-08 13:00N 48°48' W 123°01'919.1
2018-Jan-08 12:31N 48°55' W 123°10'918.5
2018-Jan-08 12:01N 49°01' W 123°20'510.2
2018-Jan-08 11:30N 49°06' W 123°18'611.4
2018-Jan-08 11:00N 49°07' W 123°09'612.1
2018-Jan-08 10:30N 49°09' W 123°01'4 8.6
2018-Jan-08 10:00N 49°11' W 122°55'0 0.3
2018-Jan-08 09:28N 49°11' W 122°55'0 0.0
2018-Jan-08 08:58N 49°11' W 122°55'0 0.0
2018-Jan-08 08:28N 49°11' W 122°55'0 0.1
2018-Jan-08 07:58N 49°11' W 122°55'0 0.1
2018-Jan-08 07:28N 49°11' W 122°55'0 0.0
2018-Jan-08 06:58N 49°11' W 122°55'0 0.1
2018-Jan-08 06:28N 49°11' W 122°55'0 0.0
2018-Jan-08 05:58N 49°11' W 122°55'0 0.1
2018-Jan-08 05:25N 49°11' W 122°55'0 0.0
2018-Jan-08 04:58N 49°11' W 122°55'0 0.0
2018-Jan-08 04:28N 49°11' W 122°55'0 0.0
2018-Jan-08 03:58N 49°11' W 122°55'0 0.1
2018-Jan-08 03:28N 49°11' W 122°55'0 0.1
2018-Jan-08 02:58N 49°11' W 122°55'0 0.0
2018-Jan-08 02:25N 49°11' W 122°55'0 0.0
2018-Jan-08 01:58N 49°11' W 122°55'0 0.0
2018-Jan-08 01:28N 49°11' W 122°55'0 0.0
2018-Jan-08 00:58N 49°11' W 122°55'0 0.0
2018-Jan-08 00:28N 49°11' W 122°55'0 0.0
2018-Jan-07 23:58N 49°11' W 122°55'0 0.0
2018-Jan-07 23:28N 49°11' W 122°55'0 0.0
2018-Jan-07 22:58N 49°11' W 122°55'0 0.0
2018-Jan-07 22:30N 49°11' W 122°55'2 4.3
2018-Jan-07 22:00N 49°09' W 122°57'5 9.4
2018-Jan-07 21:30N 49°08' W 123°04'510.7
2018-Jan-07 21:00N 49°07' W 123°12'510.9
2018-Jan-07 20:30N 49°06' W 123°20'5 9.7
2018-Jan-07 20:00N 49°01' W 123°16'4 8.1
2018-Jan-07 19:30N 48°59' W 123°12'816.7
2018-Jan-07 19:00N 48°52' W 123°03'816.7
2018-Jan-07 18:30N 48°44' W 123°06'917.5
2018-Jan-07 18:00N 48°37' W 123°14'1121.8
2018-Jan-07 17:31N 48°27' W 123°10'714.9
2018-Jan-07 17:00N 48°22' W 123°19'2 4.0
2018-Jan-07 16:31N 48°21' W 123°22'0 0.2
2018-Jan-07 15:58N 48°21' W 123°22'0 0.1
2018-Jan-07 15:28N 48°21' W 123°22'0 0.0
2018-Jan-07 14:58N 48°21' W 123°22'0 0.0
2018-Jan-07 14:28N 48°21' W 123°22'0 0.0
2018-Jan-07 13:58N 48°21' W 123°22'0 0.1
2018-Jan-07 13:28N 48°21' W 123°22'0 0.1
2018-Jan-07 12:58N 48°21' W 123°21'0 0.0
2018-Jan-07 12:16N 48°21' W 123°21'0 0.1
2018-Jan-07 11:58N 48°21' W 123°21'0 0.1
2018-Jan-07 11:22N 48°21' W 123°22'0 0.4
2018-Jan-07 10:58N 48°21' W 123°22'0 0.2
2018-Jan-07 10:28N 48°21' W 123°22'0 0.0
2018-Jan-07 09:58N 48°21' W 123°22'0 0.0
2018-Jan-07 09:28N 48°21' W 123°22'0 0.0
2018-Jan-07 08:58N 48°21' W 123°22'0 0.0
2018-Jan-07 08:28N 48°21' W 123°22'0 0.0
2018-Jan-07 07:58N 48°21' W 123°22'0 0.1
2018-Jan-07 07:28N 48°21' W 123°22'0 0.2
2018-Jan-07 07:01N 48°21' W 123°22'3 7.0
2018-Jan-07 06:31N 48°18' W 123°25'712.7
2018-Jan-07 05:59N 48°11' W 123°25'4 9.3
2018-Jan-07 05:30N 48°09' W 123°19'1019.2
2018-Jan-07 04:58N 48°13' W 123°04'1121.6
2018-Jan-07 04:28N 48°11' W 122°49'919.6
2018-Jan-07 04:00N 48°05' W 122°39'1019.6
2018-Jan-07 03:31N 47°57' W 122°31'1020.1
2018-Jan-07 03:00N 47°47' W 122°26'1020.5
2018-Jan-07 02:31N 47°37' W 122°27'1019.7
2018-Jan-07 02:00N 47°27' W 122°24'714.8
2018-Jan-07 01:30N 47°20' W 122°26'4 1.5
2018-Jan-06 22:52N 47°16' W 122°25'0 0.0
2018-Jan-06 22:28N 47°16' W 122°25'0 0.1
2018-Jan-06 21:52N 47°16' W 122°25'0 0.0
2018-Jan-06 21:28N 47°16' W 122°25'0 0.1
2018-Jan-06 20:55N 47°16' W 122°25'0 0.0
2018-Jan-06 20:25N 47°16' W 122°25'0 0.1
2018-Jan-06 19:55N 47°16' W 122°25'0 0.0
2018-Jan-06 18:58N 47°16' W 122°25'0 0.1
2018-Jan-06 18:28N 47°16' W 122°25'0 0.0
2018-Jan-06 17:58N 47°16' W 122°25'0 0.1
2018-Jan-06 17:16N 47°16' W 122°25'0 0.0
2018-Jan-06 16:55N 47°16' W 122°25'0 0.0
2018-Jan-06 16:28N 47°16' W 122°25'0 0.0
2018-Jan-06 15:58N 47°16' W 122°25'0 0.1
2018-Jan-06 15:28N 47°16' W 122°25'0 0.1
2018-Jan-06 14:58N 47°16' W 122°25'0 0.0
2018-Jan-06 14:28N 47°16' W 122°25'0 0.3
2018-Jan-06 14:00N 47°16' W 122°25'1 1.4
2018-Jan-06 13:30N 47°17' W 122°26'3 5.1
2018-Jan-06 13:00N 47°19' W 122°28'612.0
2018-Jan-06 12:30N 47°23' W 122°22'816.0
2018-Jan-06 12:01N 47°31' W 122°26'918.3
2018-Jan-06 11:31N 47°40' W 122°28'1019.1
2018-Jan-06 11:01N 47°49' W 122°28'1019.5
2018-Jan-06 10:30N 47°58' W 122°35'1519.8
2018-Jan-06 09:45N 48°11' W 122°47'520.1
2018-Jan-06 09:30N 48°11' W 122°54'1020.0
2018-Jan-06 09:00N 48°12' W 123°09'815.2
2018-Jan-06 08:31N 48°11' W 123°20'5 9.1
2018-Jan-06 08:00N 48°11' W 123°27'4 7.7
2018-Jan-06 07:30N 48°13' W 123°32'5 9.8
2018-Jan-06 07:00N 48°13' W 123°39'5 9.8
2018-Jan-06 06:29N 48°13' W 123°47'510.0
2018-Jan-06 06:00N 48°13' W 123°54'5 9.3
2018-Jan-06 05:31N 48°15' W 124°00'712.8
2018-Jan-06 05:00N 48°18' W 124°09'612.4
2018-Jan-06 04:30N 48°20' W 124°17'612.4
2018-Jan-06 04:00N 48°23' W 124°26'713.4
2018-Jan-06 03:30N 48°26' W 124°35'816.1
2018-Jan-06 03:00N 48°29' W 124°47'816.0
2018-Jan-06 02:30N 48°28' W 124°59'815.7
2018-Jan-06 01:59N 48°22' W 125°05'715.1
2018-Jan-06 01:30N 48°15' W 125°10'58313.9
2018-Jan-04 07:31N 38°35' W 123°44'913.7
2018-Jan-04 06:52N 38°28' W 123°37'513.6
2018-Jan-04 06:30N 38°24' W 123°33'713.4
2018-Jan-04 06:00N 38°18' W 123°28'713.1
2018-Jan-04 05:30N 38°13' W 123°24'713.4
2018-Jan-04 05:00N 38°08' W 123°19'713.6
2018-Jan-04 04:30N 38°03' W 123°13'713.4
2018-Jan-04 04:00N 37°58' W 123°07'713.5
2018-Jan-04 03:30N 37°54' W 122°59'713.7
2018-Jan-04 03:00N 37°51' W 122°52'713.7
2018-Jan-04 02:30N 37°48' W 122°45'611.6
2018-Jan-04 02:00N 37°46' W 122°37'816.7
2018-Jan-04 01:30N 37°50' W 122°28'612.3
2018-Jan-04 01:00N 37°48' W 122°20'2 4.9
2018-Jan-04 00:31N 37°48' W 122°17'1 3.0
2018-Jan-04 00:00N 37°48' W 122°19'0 0.0
2018-Jan-03 23:29N 37°48' W 122°19'0 0.0
2018-Jan-03 22:56N 37°48' W 122°19'0 0.0
2018-Jan-03 22:29N 37°48' W 122°19'0 0.0
2018-Jan-03 21:59N 37°48' W 122°19'0 0.0
2018-Jan-03 21:29N 37°48' W 122°19'0 0.0
2018-Jan-03 20:59N 37°48' W 122°19'0 0.0
2018-Jan-03 20:29N 37°48' W 122°19'0 0.0
2018-Jan-03 19:59N 37°48' W 122°19'0 0.0
2018-Jan-03 19:29N 37°48' W 122°19'0 0.0
2018-Jan-03 18:59N 37°48' W 122°19'0 0.0
2018-Jan-03 18:29N 37°48' W 122°19'0 0.0
2018-Jan-03 17:59N 37°48' W 122°19'0 0.0
2018-Jan-03 17:29N 37°48' W 122°19'0 0.0
2018-Jan-03 16:59N 37°48' W 122°19'0 0.0
2018-Jan-03 16:29N 37°48' W 122°19'0 0.0
2018-Jan-03 15:59N 37°48' W 122°19'0 0.0
2018-Jan-03 15:29N 37°48' W 122°19'0 0.0
2018-Jan-03 14:59N 37°48' W 122°19'0 0.0
2018-Jan-03 14:29N 37°48' W 122°19'0 0.0
2018-Jan-03 13:59N 37°48' W 122°19'0 0.0
2018-Jan-03 13:29N 37°48' W 122°19'0 0.0
2018-Jan-03 12:59N 37°48' W 122°19'0 0.0
2018-Jan-03 12:29N 37°48' W 122°19'0 0.0
2018-Jan-03 11:59N 37°48' W 122°19'0 0.4
2018-Jan-03 11:30N 37°48' W 122°19'2 4.1
2018-Jan-03 11:01N 37°48' W 122°22'510.3
2018-Jan-03 10:30N 37°49' W 122°28'612.8
2018-Jan-03 10:00N 37°46' W 122°36'510.0
2018-Jan-03 09:30N 37°44' W 122°41'2 3.6
2018-Jan-03 09:01N 37°42' W 122°41'2 4.3
2018-Jan-03 08:30N 37°40' W 122°40'5 9.5
2018-Jan-03 08:00N 37°35' W 122°40'611.9
2018-Jan-03 07:30N 37°29' W 122°40'612.1
2018-Jan-03 07:00N 37°23' W 122°40'612.2
2018-Jan-03 06:31N 37°17' W 122°40'612.4
2018-Jan-03 06:00N 37°11' W 122°40'611.9
2018-Jan-03 05:30N 37°05' W 122°40'612.0
2018-Jan-03 05:00N 36°59' W 122°40'612.0
2018-Jan-03 04:30N 36°53' W 122°40'611.9
2018-Jan-03 04:00N 36°47' W 122°39'612.1
2018-Jan-03 03:31N 36°41' W 122°39'713.4
2018-Jan-03 03:00N 36°34' W 122°38'713.7
2018-Jan-03 02:30N 36°27' W 122°38'2 4.0
2018-Jan-03 02:00N 36°25' W 122°37'0 0.1
2018-Jan-03 01:30N 36°25' W 122°37'0 0.0
2018-Jan-03 01:00N 36°25' W 122°37'0 0.2
2018-Jan-03 00:30N 36°26' W 122°37'0 0.2
2018-Jan-03 00:00N 36°26' W 122°37'0 0.3
2018-Jan-02 23:30N 36°26' W 122°37'0 0.2
2018-Jan-02 23:00N 36°26' W 122°38'0 0.3
2018-Jan-02 22:30N 36°26' W 122°38'0 0.1
2018-Jan-02 22:00N 36°26' W 122°38'0 0.1
2018-Jan-02 21:30N 36°26' W 122°38'0 0.0
2018-Jan-02 21:00N 36°26' W 122°38'0 0.2
2018-Jan-02 20:30N 36°26' W 122°38'0 0.2
2018-Jan-02 20:00N 36°26' W 122°38'0 0.3
2018-Jan-02 19:30N 36°26' W 122°38'0 0.3
2018-Jan-02 19:00N 36°25' W 122°38'0 0.4
2018-Jan-02 18:30N 36°25' W 122°38'0 0.4
2018-Jan-02 18:00N 36°25' W 122°38'0 0.5
2018-Jan-02 17:30N 36°25' W 122°38'0 0.5
2018-Jan-02 17:00N 36°25' W 122°38'0 0.5
2018-Jan-02 16:30N 36°24' W 122°38'0 0.4
2018-Jan-02 16:00N 36°24' W 122°38'0 0.4
2018-Jan-02 15:30N 36°24' W 122°38'0 0.3
2018-Jan-02 15:00N 36°24' W 122°38'  

Dump ship's entire track history